Flag for Norway

Past Weather in 70°40'08.0"N, 23°40'10.9"E, Norway — Yesterday and Last 2 Weeks

Currently: 57 °F. Sunny. (Weather station: Hammerfest, Norway). See more current weather

Past Weather in 70°40'08.0"N, 23°40'10.9"E — Graph

°F

70°40'08.0"N, 23°40'10.9"E Temperature Yesterday

Maximum temperature yesterday: 54 °F (at 11:20 am)
Minimum temperature yesterday: 43 °F (at 12:20 am)
Average temperature yesterday: 48 °F

High & Low Weather Summary for the Past Weeks

 TemperatureHumidityPressure
High61 °F (May 23, 6:20 pm)100% (May 15, 3:50 pm)30.36 "Hg (May 15, 3:50 pm)
Low28 °F (May 20, 12:50 pm)45% (May 22, 11:50 am)29.56 "Hg (May 15, 12:50 am)
Average42 °F78%29.99 "Hg
* Reported May 14 9:20 pm — May 29 9:20 pm, 70°40'08.0"N, 23°40'10.9"E. Weather by CustomWeather, © 2024

Note: Actual official high and low records may vary slightly from our data, if they occured in-between our weather recording intervals... More about our weather records

70°40'08.0"N, 23°40'10.9"E Weather History for the Previous 24 Hours

Scroll right to see more
 ConditionsComfort  
Time TempWeatherWind HumidityBarometerVisibility
9:20 pm
Wed, May 29
57 °FSunny.8 mph72%29.92 "Hg10 mi
8:50 pm57 °FSunny.7 mph77%29.92 "Hg10 mi
8:20 pm57 °FSunny.5 mph72%29.92 "Hg10 mi
7:50 pm59 °FSunny.6 mph72%29.92 "Hg10 mi
7:20 pm59 °FSunny.9 mph68%29.92 "Hg10 mi
6:50 pm59 °FSunny.9 mph68%29.92 "Hg10 mi
6:20 pm61 °FPassing clouds.5 mph68%29.92 "HgN/A
5:50 pm61 °FSunny.6 mph68%29.95 "Hg10 mi
5:20 pm59 °FSunny.8 mph68%29.95 "Hg10 mi
4:50 pm61 °FSunny.2 mph68%29.95 "Hg10 mi
4:20 pm59 °FSunny.6 mph68%29.95 "Hg10 mi
3:20 pm59 °FPassing clouds.5 mph68%29.95 "HgN/A
2:50 pm59 °FSunny.6 mph68%29.95 "Hg10 mi
2:20 pm57 °FSunny.6 mph72%29.98 "Hg10 mi
1:50 pm57 °FSunny.7 mph67%29.98 "Hg10 mi
12:50 pm57 °FPassing clouds.5 mph72%29.98 "HgN/A
12:20 pm57 °FPassing clouds.5 mph72%29.98 "HgN/A
11:20 am55 °FPassing clouds.6 mph72%29.98 "HgN/A
9:50 am52 °FSunny.6 mph77%29.98 "Hg10 mi
9:20 am54 °FPassing clouds.3 mph77%29.98 "HgN/A
8:50 am52 °FScattered clouds.3 mph77%29.98 "HgN/A
8:20 am48 °FScattered clouds.5 mph82%29.98 "HgN/A
7:50 am50 °FScattered clouds.3 mph82%29.98 "HgN/A
7:20 am50 °FPassing clouds.No wind82%29.98 "HgN/A
6:50 am48 °FPassing clouds.No wind87%29.98 "HgN/A
6:20 am46 °FSunny.2 mph87%29.98 "Hg10 mi
5:50 am46 °FPassing clouds.5 mph87%29.98 "HgN/A
5:20 am46 °FClear.6 mph87%29.98 "HgN/A
4:50 am46 °FClear.2 mph87%29.98 "HgN/A
4:20 am45 °FClear.3 mph87%29.95 "HgN/A
3:20 am43 °FClear.2 mph93%29.95 "HgN/A
2:50 am45 °FClear.3 mph87%29.95 "HgN/A
2:20 am43 °FClear.No wind100%29.95 "HgN/A
1:50 am43 °FClear.No wind93%29.95 "HgN/A
1:20 am45 °FClear.5 mph93%29.95 "HgN/A
12:50 am43 °FClear.No wind93%29.95 "HgN/A
12:20 am43 °FClear.6 mph100%29.95 "HgN/A
11:50 pm
Tue, May 28
43 °FClear.6 mph93%29.95 "HgN/A
11:20 pm43 °FSunny.7 mph93%29.95 "Hg10 mi
10:20 pm45 °FSunny.8 mph93%29.92 "Hg10 mi
Weather by CustomWeather, © 2024

See weather overview